Main page
METAR-TAF:

METAR-TAF

Airports :

Oban, Scotland

Oban Airport

latitude: 56-27-49N, longitude: 5-24-00W, elevation: 7 m

Current weather observation

The report was made 14 hours and 51 minutes ago, at 16:20 UTC
Wind 13 kt from the West/Southwest
Temperature 15°C
Humidity 77%
Pressure 1001 hPa
Visibility 10 km or more
Few clouds at a height of 1200 ft
Scattered clouds at a height of 2800 ft

METAR: EGEO 181620Z 24013KT 9999 FEW012 SCT028 15/11 Q1001

Time: 08:11 (07:11 UTC)

Forecast

The report was made 17 hours and 7 minutes ago, at 14:04 UTC
Forecast valid from 18 at 15 UTC to 18 at 17 UTC
Wind 12 kt from the West/Southwest
Visibility 10 km or more
Scattered clouds at a height of 1400 ft
Probability 40% :
Temporary
from 18 at 15 UTC to 18 at 17 UTC
Visibility: 6000 m
rain showers

TAF: EGEO 181404Z 1815/1817 25012KT 9999 SCT014 PROB40 TEMPO 1815/1817 6000 SHRA

Weather observations and forecasts of more than 4000 airports (METAR and TAF reports).

The available stations are represented by yellow and red dots on the map.

Hover mouse over dot to see the name of the station.

Then click to see weather observations and forecasts.

To change the map : click on the green buttons with a black cross to zoom in, on the green button with a dash to zoom out, or on the green arrows for adjacent maps.


METAR-TAF: